Address 0x2dfff737eb054ded9795d96d6d9b9909896bb940 5

 
 
Txn Hash Method
Block
From
To
Value [Txn Fee]
0x709c959aa07775c4d077109314cf40b3534763a84be0037f1e93b66c85ca3430Buy351232192022-11-02 21:10:5136 days 23 hrs ago0x2dfff737eb054ded9795d96d6d9b9909896bb940OUT 0xab9219be63680b0a346b2f98ec9fd3bd165a449a0 MATIC0.00221964 60
0x7d2eb057a738af2028e2018adaa9164498cb84e9d3b41f4403951b51fffd68d6Approve351232072022-11-02 21:10:2736 days 23 hrs ago0x2dfff737eb054ded9795d96d6d9b9909896bb940OUT Maker: Dai Stablecoin0 MATIC0.0019116 60
0xa9fd5b634b11349c94e30d8ca1e6f1f94dbc68b60e538b02124f5b52c2fe01adApprove351231392022-11-02 21:08:0736 days 23 hrs ago0x2dfff737eb054ded9795d96d6d9b9909896bb940OUT Maker: Dai Stablecoin0 MATIC0.0019116 60
0xee77d70ac1aca8efa64ba975f2067e849aa1edbe0662e8ce8f1497f436ee4cfcApprove351227382022-11-02 20:54:1736 days 23 hrs ago0x2dfff737eb054ded9795d96d6d9b9909896bb940OUT Maker: Dai Stablecoin0 MATIC0.0031056 60
0x9934e62f1bcf08edd19401efaf478a02ac53ae72c746993e5ef1018817500d54Approve350316332022-10-31 15:29:5239 days 4 hrs ago0x2dfff737eb054ded9795d96d6d9b9909896bb940OUT Maker: Dai Stablecoin0 MATIC0.004485075653 86.631299798
0x268b20fc744118f226ef70c56cb5acdd79005f3ed538f6df760c48ffa1d9ae4aBuy ATM350301142022-10-31 14:33:5539 days 5 hrs ago0x2dfff737eb054ded9795d96d6d9b9909896bb940OUT 0xbbf4303d40c1ec06a747876d6643a69714843ce40 MATIC0.004406100
0xdf67c9bf981df8cf5f4ffbe2458685dab78664d075621310157098e1b5ac2096Buy ATM350301042022-10-31 14:33:3539 days 5 hrs ago0x2dfff737eb054ded9795d96d6d9b9909896bb940OUT 0xbbf4303d40c1ec06a747876d6643a69714843ce40 MATIC0.004406100
0x5931f82ce561941146d8b27bf270abffa572caa91ff5a0a17a332b802c33f3e8Buy ATM350300152022-10-31 14:30:2939 days 5 hrs ago0x2dfff737eb054ded9795d96d6d9b9909896bb940OUT 0xbbf4303d40c1ec06a747876d6643a69714843ce40 MATIC0.004406100
0x5742f5ef9c89bc277694e1fa6a4b5b69c81a6d17fc1dd0725979a090802fa6d7Buy ATM350300152022-10-31 14:30:2939 days 5 hrs ago0x2dfff737eb054ded9795d96d6d9b9909896bb940OUT 0xbbf4303d40c1ec06a747876d6643a69714843ce40 MATIC0.004406100
0xf644c9feb0a11751809f3d28bd04ce5110ef1233ec4815593b1bbb6521e89787Buy ATM350300152022-10-31 14:30:2939 days 5 hrs ago0x2dfff737eb054ded9795d96d6d9b9909896bb940OUT 0xbbf4303d40c1ec06a747876d6643a69714843ce40 MATIC0.004406100
0xdefe7e3efd31d49e72944acdc08089f247f2bd94666ccb3b8dcb28cadec90cc8Transfer348651962022-10-27 13:55:1643 days 6 hrs ago0x2dfff737eb054ded9795d96d6d9b9909896bb940OUT0x2092f8d8ec006bf4ae6d2777c76edf4762d2a9ab1.5 MATIC0.00599132032 285.300967629
0x6cc26b3f49deaa1ae2cbab46cc601a94f8ffbad75012345fae76d9bfc753e311Transfer339164032022-10-04 10:23:4066 days 9 hrs ago0x2dfff737eb054ded9795d96d6d9b9909896bb940OUT0x41fbbd9baa0aab15a1e64134a17b8b542ddf21ba1 MATIC0.0006520437 31.049700013
0xa2245f9622853d1513e9251286487b040c4e740f6de64c7616ac4011e136bd9f0x60e06040333240552022-09-20 1:09:4680 days 19 hrs ago0x2dfff737eb054ded9795d96d6d9b9909896bb940OUT Contract Creation0 MATIC0.3679936650
0x8f4d06dcf396b77ce72e988aa7dbe6611fbe7fb4218c0aae17160b0a261a9a10Mint333240492022-09-20 1:09:3480 days 19 hrs ago0x2dfff737eb054ded9795d96d6d9b9909896bb940OUT 0x1f5c3ed4130f66dd331aededab806d49dc9c3a320 MATIC0.03935295 650
0x17df03bf5e9e101b5a79f72de14e996f4eb576e4e210bd811d283b433cb7ae0f0x60e06040333240422022-09-20 1:09:2080 days 19 hrs ago0x2dfff737eb054ded9795d96d6d9b9909896bb940OUT Contract Creation0 MATIC0.3679936650
0x172b2bdb617e02fa23f244f2913daacd36d27647583b499e33b5f56acf7da13bMint333240382022-09-20 1:09:1280 days 19 hrs ago0x2dfff737eb054ded9795d96d6d9b9909896bb940OUT 0x1f5c3ed4130f66dd331aededab806d49dc9c3a320 MATIC0.03935295 650
0x992164fce02e289e293e370d434dab0c279910b991cfd4a9920d8bac78a6b9000x60e06040333240322022-09-20 1:09:0080 days 19 hrs ago0x2dfff737eb054ded9795d96d6d9b9909896bb940OUT Contract Creation0 MATIC0.3679936650
0x8adcc3ccd2195933b09b20dd37da2d5cea5e66f1ca4a5e848d9ab958e8de8c6bMint333240272022-09-20 1:08:4680 days 19 hrs ago0x2dfff737eb054ded9795d96d6d9b9909896bb940OUT 0x1f5c3ed4130f66dd331aededab806d49dc9c3a320 MATIC0.03935295 650
0xbe1a94e317122b4c80f0d39366f3184dc71466f33f8a57090128c5d2d84da8f80x60e06040333240192022-09-20 1:08:2980 days 19 hrs ago0x2dfff737eb054ded9795d96d6d9b9909896bb940OUT Contract Creation0 MATIC0.3679936650
0x103c12d6f1a2dd0cc604890ed73e851cd7c06d60adaa312cd349f4e288f1dde70x60806040333235792022-09-20 0:53:2180 days 19 hrs ago0x2dfff737eb054ded9795d96d6d9b9909896bb940OUT Contract Creation0 MATIC1.33398785650
0x7da91aa1919e156c1723743ebaad83330fb829f7ce8a8e8a581697d105a3bbc7Set Allowed To T...333234962022-09-20 0:50:3180 days 19 hrs ago0x2dfff737eb054ded9795d96d6d9b9909896bb940OUT 0xd918a0b35e22d1a06f13c34fd17e86fc09fe24120 MATIC0.03005535650
0xb3555a63eb9f1eb1d306c67e5fa7dde5c35e2e82e08b2d9e1875dda639634ee5Set Allowed Usd ...333234922022-09-20 0:50:2380 days 19 hrs ago0x2dfff737eb054ded9795d96d6d9b9909896bb940OUT 0xd918a0b35e22d1a06f13c34fd17e86fc09fe24120 MATIC0.03004235650
0xaaef4141bf31c1f4971fff51fbaac48ff70f9a8542701a6a4a831e41003ace0cSet Allowed Usd ...333234892022-09-20 0:50:1780 days 19 hrs ago0x2dfff737eb054ded9795d96d6d9b9909896bb940OUT 0xd918a0b35e22d1a06f13c34fd17e86fc09fe24120 MATIC0.03004235650
0xb884115be713c64d8bd10430cbe71419d3683ad719049b5330ec4069445fdd00Set Allowed Usd ...333234842022-09-20 0:50:0780 days 19 hrs ago0x2dfff737eb054ded9795d96d6d9b9909896bb940OUT 0xd918a0b35e22d1a06f13c34fd17e86fc09fe24120 MATIC0.03004235650
0x4f63f74ec9fa06d0608e988640b46d4962a53244f221f4d49b6f70d85c846d49Start333234792022-09-20 0:49:5780 days 19 hrs ago0x2dfff737eb054ded9795d96d6d9b9909896bb940OUT 0xd918a0b35e22d1a06f13c34fd17e86fc09fe24120 MATIC0.0310518650
[ Download CSV Export 
Latest 5 internal transactions
Parent Txn Hash Block From To Value
0x15928207e7f48ff910f8151a76d5e562d8cc6fa65386288e70da7bb77f44d973312802912022-07-29 15:12:24133 days 5 hrs ago 0x: Exchange Proxy Flash Wallet0x2dfff737eb054ded9795d96d6d9b9909896bb9409.477290192300532512 MATIC
0x4081148559b5dd23744bd021d44a231193396290bc3cc66d6e7e60aa78126cdd312801572022-07-29 15:07:48133 days 5 hrs ago 0x: Exchange Proxy Flash Wallet0x2dfff737eb054ded9795d96d6d9b9909896bb9409.494735294854884487 MATIC
0x398f6197a83e8e8d834bc2b07eaba5abaa9ba26ec821cfac514b729daee4c847312801412022-07-29 15:07:16133 days 5 hrs ago 0x: Exchange Proxy Flash Wallet0x2dfff737eb054ded9795d96d6d9b9909896bb9405.270802916084540061 MATIC
0xc6f18c1747676738ebd67bea1c252d24f3fa58a6de2a2147aad5cd1d08b0ac4a309472192022-07-20 18:52:03142 days 1 hr ago Uniswap V3: Router 20x2dfff737eb054ded9795d96d6d9b9909896bb9400.058283137851121625 MATIC
0x5a7e346c26d1187286fc1a8bed1c552e32a7267685c617cc6898f11ea5afd49f309472052022-07-20 18:51:35142 days 1 hr ago Uniswap V3: Router 20x2dfff737eb054ded9795d96d6d9b9909896bb9400.059004700566578361 MATIC
[ Download CSV Export 
Loading

Contract Name:
0 MATIC

Compiler Version
0

Optimization Enabled:
0 MATIC

Other Settings:
-NA-
Block Transaction Gas Used Reward
Age Block Fee Address BC Fee Address Voting Power Jailed Incoming
Block Uncle Number Difficulty Gas Used Reward
Loading
Loading
Make sure to use the "Vote Down" button for any spammy posts, and the "Vote Up" for interesting conversations.